Time;durP1;ratioP1;P1;durP2;ratioP2;P2;SDS_P1;SDS_P2;PMS_P1;PMS_P2;Temp;Humidity;BMP_temperature;BMP_pressure;BME280_temperature;BME280_humidity;BME280_pressure;Samples;Min_cycle;Max_cycle;Signal;HPM_P1;HPM_P2
2024/01/14 00:01:53;;;;;;;14.10;12.80;;;;;;;20.51;23.14;94922.53;6155153;28;109120;-55
2024/01/14 00:04:57;;;;;;;13.40;12.13;;;;;;;20.50;23.43;94920.91;6159306;28;109191;-55
2024/01/14 00:08:02;;;;;;;13.63;12.33;;;;;;;20.55;23.34;94924.28;6160616;28;109686;-55
2024/01/14 00:11:07;;;;;;;14.20;12.80;;;;;;;20.52;23.55;94924.09;6145278;28;110480;-55
2024/01/14 00:14:11;;;;;;;13.33;12.13;;;;;;;20.48;23.37;94920.44;6159033;28;108983;-55
2024/01/14 00:17:14;;;;;;;13.03;11.83;;;;;;;20.46;23.41;94917.28;6158108;28;109386;-55
2024/01/14 00:20:18;;;;;;;13.80;12.50;;;;;;;20.46;23.48;94919.94;6159432;28;109569;-55
2024/01/14 00:23:22;;;;;;;12.77;11.63;;;;;;;20.44;23.56;94928.22;6151529;28;110660;-55
2024/01/14 00:26:27;;;;;;;13.43;12.33;;;;;;;20.44;23.33;94911.50;6158739;28;109650;-55
2024/01/14 00:29:30;;;;;;;13.07;11.77;;;;;;;20.43;23.36;94910.69;6143144;28;110386;-55
2024/01/14 00:32:33;;;;;;;13.40;12.20;;;;;;;20.44;23.31;94916.81;6153666;28;110126;-56
2024/01/14 00:35:36;;;;;;;12.80;11.60;;;;;;;20.43;23.26;94896.63;6152385;28;110427;-55
2024/01/14 00:38:44;;;;;;;13.07;11.87;;;;;;;20.42;23.42;94909.13;6162192;28;110110;-55
2024/01/14 00:41:47;;;;;;;13.10;11.90;;;;;;;20.41;23.26;94899.59;6158106;28;109311;-55
2024/01/14 00:44:50;;;;;;;12.90;11.80;;;;;;;20.39;23.47;94899.09;6148654;28;109209;-56
2024/01/14 00:47:53;;;;;;;12.90;11.77;;;;;;;20.39;23.27;94908.94;6158750;28;109121;-55
2024/01/14 00:50:56;;;;;;;13.03;11.80;;;;;;;20.38;23.33;94891.44;6166247;28;109226;-54
2024/01/14 00:54:01;;;;;;;12.80;11.60;;;;;;;20.35;23.15;94902.66;6159404;28;109891;-55
2024/01/14 00:57:04;;;;;;;12.43;11.33;;;;;;;20.35;23.20;94894.69;6147148;28;110024;-55
2024/01/14 01:00:09;;;;;;;12.00;10.90;;;;;;;20.32;23.24;94894.16;6158393;28;110317;-55
2024/01/14 01:03:12;;;;;;;13.20;12.00;;;;;;;20.31;23.28;94903.22;6160524;28;110075;-54
2024/01/14 01:06:15;;;;;;;12.07;10.97;;;;;;;20.30;23.26;94890.25;6159084;28;108788;-55
2024/01/14 01:09:20;;;;;;;12.57;11.37;;;;;;;20.27;23.17;94893.50;6148561;28;109278;-55
2024/01/14 01:12:23;;;;;;;12.43;11.30;;;;;;;20.32;23.26;94890.72;6159251;28;109144;-55
2024/01/14 01:15:28;;;;;;;12.83;11.53;;;;;;;20.30;23.28;94879.63;6161721;28;108904;-55
2024/01/14 01:18:31;;;;;;;12.83;11.50;;;;;;;20.28;23.35;94882.56;6153775;28;109074;-55
2024/01/14 01:21:35;;;;;;;12.17;10.87;;;;;;;20.27;23.30;94867.72;6162741;28;108997;-55
2024/01/14 01:24:39;;;;;;;12.83;11.53;;;;;;;20.26;23.30;94876.78;6162460;28;109868;-55
2024/01/14 01:27:43;;;;;;;12.40;11.20;;;;;;;20.24;23.25;94857.69;6162911;28;110098;-55
2024/01/14 01:30:46;;;;;;;13.07;11.77;;;;;;;20.25;23.17;94861.91;6151651;28;109234;-55
2024/01/14 01:33:49;;;;;;;13.07;11.67;;;;;;;20.23;23.30;94856.09;6155096;28;108772;-55
2024/01/14 01:36:52;;;;;;;13.87;12.50;;;;;;;20.23;23.12;94855.31;6163174;28;109375;-54
2024/01/14 01:39:57;;;;;;;13.17;11.87;;;;;;;20.22;23.25;94845.75;6156974;28;109102;-56
2024/01/14 01:43:00;;;;;;;12.80;11.60;;;;;;;20.21;23.35;94850.28;6152108;28;110042;-55
2024/01/14 01:46:03;;;;;;;12.10;11.00;;;;;;;20.19;23.41;94846.38;6163312;28;109158;-56
2024/01/14 01:49:06;;;;;;;13.30;11.97;;;;;;;20.18;23.38;94840.25;6162771;28;109178;-56
2024/01/14 01:52:10;;;;;;;12.53;11.30;;;;;;;20.17;23.19;94836.03;6157202;28;109059;-55
2024/01/14 01:55:15;;;;;;;12.53;11.43;;;;;;;20.17;23.10;94835.25;6156950;28;110157;-55
2024/01/14 01:58:19;;;;;;;12.87;11.77;;;;;;;20.17;23.06;94844.00;6162572;28;109891;-56
2024/01/14 02:01:22;;;;;;;13.17;11.97;;;;;;;20.17;23.17;94832.59;6161814;28;109170;-55
2024/01/14 02:04:26;;;;;;;12.23;11.13;;;;;;;20.16;23.10;94831.78;6150831;28;110291;-55
2024/01/14 02:07:33;;;;;;;12.00;10.80;;;;;;;20.17;23.24;94821.97;6163013;28;110094;-56
2024/01/14 02:10:38;;;;;;;12.50;11.30;;;;;;;20.16;23.12;94826.47;6162481;28;109511;-56
2024/01/14 02:13:41;;;;;;;12.60;11.40;;;;;;;20.13;23.02;94827.06;6161265;28;109133;-55
2024/01/14 02:16:44;;;;;;;12.10;11.00;;;;;;;20.14;23.05;94823.31;6151024;28;109248;-55
2024/01/14 02:19:47;;;;;;;11.47;10.37;;;;;;;20.14;23.27;94822.53;6161726;28;109189;-55
2024/01/14 02:22:53;;;;;;;11.80;10.70;;;;;;;20.14;23.09;94828.63;6162554;28;110046;-55
2024/01/14 02:25:57;;;;;;;12.27;11.07;;;;;;;20.12;23.06;94816.75;6158928;28;109213;-55
2024/01/14 02:29:03;;;;;;;12.40;11.20;;;;;;;20.10;23.15;94810.94;6154756;28;110182;-55
2024/01/14 02:32:06;;;;;;;12.30;11.20;;;;;;;20.09;23.03;94825.31;6161057;28;109023;-55
2024/01/14 02:35:09;;;;;;;12.57;11.37;;;;;;;20.07;23.16;94828.28;6161881;28;109092;-55
2024/01/14 02:38:12;;;;;;;12.50;11.40;;;;;;;20.07;23.28;94825.63;6151731;28;111567;-55
2024/01/14 02:41:17;;;;;;;11.07;9.97;;;;;;;20.06;23.19;94821.38;6160910;28;109065;-56
2024/01/14 02:44:20;;;;;;;12.43;11.23;;;;;;;20.03;22.85;94822.78;6161648;28;109404;-56
2024/01/14 02:47:23;;;;;;;12.27;11.07;;;;;;;20.05;22.99;94819.81;6161517;28;109124;-56
2024/01/14 02:50:26;;;;;;;12.20;11.10;;;;;;;20.04;23.13;94807.63;6150190;28;109140;-55
2024/01/14 02:53:29;;;;;;;11.43;10.43;;;;;;;20.05;22.94;94806.53;6161772;28;110046;-55
2024/01/14 02:56:34;;;;;;;10.80;9.80;;;;;;;20.04;23.03;94810.28;6161004;28;109176;-56
2024/01/14 02:59:37;;;;;;;11.47;10.37;;;;;;;20.06;23.05;94812.63;6160960;28;109106;-55
2024/01/14 03:02:41;;;;;;;11.43;10.33;;;;;;;20.04;22.88;94810.28;6149980;28;109125;-56
2024/01/14 03:05:44;;;;;;;12.03;10.93;;;;;;;20.05;23.03;94814.50;6161259;28;110607;-55
2024/01/14 03:08:47;;;;;;;11.97;10.60;;;;;;;20.05;22.97;94819.81;6159698;28;110097;-56
2024/01/14 03:11:52;;;;;;;12.67;11.10;;;;;;;20.02;23.04;94810.56;6154106;28;110336;-55
2024/01/14 03:14:55;;;;;;;12.90;11.70;;;;;;;20.02;23.05;94809.78;6156200;28;109167;-55
2024/01/14 03:17:58;;;;;;;12.53;11.33;;;;;;;20.01;22.85;94805.56;6163256;28;109181;-56
2024/01/14 03:21:02;;;;;;;12.20;11.03;;;;;;;20.00;23.05;94806.66;6169100;28;110398;-55
2024/01/14 03:24:05;;;;;;;12.03;10.90;;;;;;;19.99;22.92;94805.06;6150859;28;109660;-55
2024/01/14 03:27:10;;;;;;;11.03;9.97;;;;;;;19.98;22.94;94803.47;6159455;28;109232;-55
2024/01/14 03:30:13;;;;;;;12.47;11.27;;;;;;;19.98;22.87;94803.47;6159992;28;110087;-54
2024/01/14 03:33:17;;;;;;;11.23;10.23;;;;;;;19.96;22.95;94795.81;6160190;28;109052;-55
2024/01/14 03:36:21;;;;;;;11.70;10.60;;;;;;;19.96;23.00;94789.72;6149693;28;110376;-55
2024/01/14 03:39:24;;;;;;;12.07;10.87;;;;;;;19.96;22.94;94795.81;6160242;28;109339;-54
2024/01/14 03:42:28;;;;;;;11.33;10.23;;;;;;;19.96;22.83;94795.03;6160800;28;110226;-54
2024/01/14 03:45:32;;;;;;;11.73;10.63;;;;;;;19.98;22.87;94806.91;6158747;28;110198;-56
2024/01/14 03:48:35;;;;;;;11.10;10.10;;;;;;;19.98;22.88;94804.25;6152768;28;110264;-56
2024/01/14 03:51:38;;;;;;;11.00;10.00;;;;;;;19.99;22.72;94799.75;6160762;28;109043;-56
2024/01/14 03:54:41;;;;;;;11.53;10.43;;;;;;;19.95;22.89;94804.06;6160134;28;109223;-57
2024/01/14 03:57:45;;;;;;;11.40;10.30;;;;;;;19.94;22.79;94813.91;6149510;28;110735;-56
2024/01/14 04:00:49;;;;;;;11.33;10.30;;;;;;;19.93;22.93;94817.66;6160240;28;109165;-56
2024/01/14 04:03:52;;;;;;;12.47;11.33;;;;;;;19.98;22.86;94830.03;6160272;28;109100;-57
2024/01/14 04:06:55;;;;;;;10.70;9.70;;;;;;;19.94;22.99;94827.19;6160393;28;109496;-56
2024/01/14 04:09:58;;;;;;;10.30;9.40;;;;;;;19.92;22.96;94820.63;6148239;28;109210;-56
2024/01/14 04:13:03;;;;;;;9.70;8.80;;;;;;;19.88;22.90;94819.63;6159234;28;109416;-57
2024/01/14 04:16:07;;;;;;;10.70;9.67;;;;;;;19.87;23.00;94834.00;6159456;28;110188;-57
2024/01/14 04:19:10;;;;;;;11.07;9.93;;;;;;;19.87;23.09;94828.69;6159002;28;110196;-57
2024/01/14 04:22:13;;;;;;;10.03;9.13;;;;;;;19.85;22.94;94818.38;6148300;28;109119;-57
2024/01/14 04:25:16;;;;;;;11.17;10.13;;;;;;;19.86;22.68;94811.19;6158940;28;109463;-57
2024/01/14 04:28:21;;;;;;;10.90;9.90;;;;;;;19.84;22.75;94800.88;6159866;28;109464;-57
2024/01/14 04:31:24;;;;;;;10.93;9.93;;;;;;;19.85;23.10;94801.66;6154762;28;110286;-57
2024/01/14 04:34:27;;;;;;;10.53;9.53;;;;;;;19.83;22.83;94795.84;6154463;28;108917;-56
2024/01/14 04:37:31;;;;;;;11.67;10.57;;;;;;;19.85;22.82;94799.00;6159786;28;110439;-57
2024/01/14 04:40:34;;;;;;;10.67;9.67;;;;;;;19.85;22.85;94799.78;6159677;28;110221;-57
2024/01/14 04:43:39;;;;;;;11.20;10.20;;;;;;;19.84;22.79;94792.13;6148901;28;110079;-57
2024/01/14 04:46:43;;;;;;;10.53;9.53;;;;;;;19.82;22.77;94786.28;6159647;28;109286;-57
2024/01/14 04:49:46;;;;;;;11.10;10.10;;;;;;;19.81;22.71;94787.38;6161170;28;109297;-57
2024/01/14 04:52:49;;;;;;;11.53;10.33;;;;;;;19.81;22.85;94803.31;6163746;28;109494;-57
2024/01/14 04:55:52;;;;;;;10.50;9.50;;;;;;;19.79;22.79;94798.28;6153321;28;110520;-56
2024/01/14 04:58:57;;;;;;;10.50;9.50;;;;;;;19.79;22.95;94810.78;6163231;28;109132;-56
2024/01/14 05:02:00;;;;;;;10.57;9.57;;;;;;;19.80;22.75;94799.06;6163633;28;109305;-56
2024/01/14 05:05:03;;;;;;;10.97;9.87;;;;;;;19.79;22.89;94810.78;6162744;28;109031;-56
2024/01/14 05:08:06;;;;;;;10.03;9.03;;;;;;;19.78;22.92;94815.31;6155539;28;109240;-56
2024/01/14 05:11:09;;;;;;;11.97;10.63;;;;;;;19.77;22.81;94805.00;6163659;28;109405;-56
2024/01/14 05:14:13;;;;;;;11.10;10.10;;;;;;;19.79;22.83;94810.78;6163841;28;110337;-56
2024/01/14 05:17:17;;;;;;;10.47;9.47;;;;;;;19.85;22.98;94806.97;6150500;28;110055;-55
2024/01/14 05:20:20;;;;;;;10.83;9.83;;;;;;;19.84;22.85;94795.56;6162983;28;110094;-56
2024/01/14 05:23:24;;;;;;;10.63;9.63;;;;;;;19.83;22.77;94801.16;6162732;28;109079;-56
2024/01/14 05:26:27;;;;;;;9.53;8.70;;;;;;;19.82;22.70;94792.38;6162972;28;109276;-56
2024/01/14 05:29:32;;;;;;;10.53;9.50;;;;;;;19.83;22.84;94795.84;6149842;28;110239;-56
2024/01/14 05:32:35;;;;;;;9.50;8.50;;;;;;;19.83;22.83;94795.84;6162094;28;110258;-55
2024/01/14 05:35:38;;;;;;;10.40;9.50;;;;;;;19.81;22.96;94798.78;6164499;28;108892;-55
2024/01/14 05:38:43;;;;;;;10.10;9.20;;;;;;;19.81;22.88;94793.47;6161510;28;110039;-56
2024/01/14 05:41:47;;;;;;;10.60;9.60;;;;;;;19.79;22.97;94795.63;6156949;28;110550;-56
2024/01/14 05:44:51;;;;;;;10.40;9.40;;;;;;;19.83;23.04;94801.16;6163306;28;109295;-56
2024/01/14 05:47:54;;;;;;;10.17;9.20;;;;;;;19.80;22.95;94791.13;6162395;28;109541;-55
2024/01/14 05:50:57;;;;;;;10.23;9.23;;;;;;;19.78;23.10;94796.72;6157923;28;108905;-55
2024/01/14 05:54:01;;;;;;;11.23;10.20;;;;;;;19.83;23.06;94799.28;6157256;28;109590;-55
2024/01/14 05:57:04;;;;;;;9.73;8.73;;;;;;;19.77;23.05;94797.81;6162197;28;109060;-55
2024/01/14 06:00:10;;;;;;;11.33;10.10;;;;;;;19.77;23.24;94802.31;6161438;28;109121;-55
2024/01/14 06:03:13;;;;;;;13.00;9.17;;;;;;;19.89;23.68;94799.97;6152031;28;109779;-51
2024/01/14 06:06:16;;;;;;;10.97;9.93;;;;;;;20.36;22.35;94803.25;6144545;28;109130;-51
2024/01/14 06:09:20;;;;;;;9.27;8.30;;;;;;;20.72;21.74;94795.22;6143945;28;109363;-51
2024/01/14 06:12:23;;;;;;;10.20;9.20;;;;;;;20.89;21.22;94790.81;6162553;28;110878;-51
2024/01/14 06:15:27;;;;;;;11.87;9.57;;;;;;;21.00;21.39;94782.56;6150788;28;109644;-51
2024/01/14 06:18:30;;;;;;;10.13;9.13;;;;;;;21.05;20.83;94787.81;6162177;28;109057;-51
2024/01/14 06:21:33;;;;;;;10.27;9.37;;;;;;;21.07;20.93;94781.09;6163041;28;110327;-51
2024/01/14 06:24:37;;;;;;;10.87;9.77;;;;;;;21.07;20.87;94785.63;6160394;28;109015;-51
2024/01/14 06:27:40;;;;;;;11.40;10.30;;;;;;;21.06;20.86;94787.50;6155344;28;111307;-52
2024/01/14 06:30:44;;;;;;;11.47;9.33;;;;;;;21.11;20.57;94791.91;6161459;28;109083;-51
2024/01/14 06:33:47;;;;;;;10.53;9.53;;;;;;;21.18;21.01;94786.94;6162172;28;109183;-51
2024/01/14 06:36:51;;;;;;;9.87;8.90;;;;;;;21.19;20.94;94785.84;6141612;28;109831;-50
2024/01/14 06:39:54;;;;;;;10.90;9.90;;;;;;;21.24;20.94;94784.91;6161658;28;110098;-51
2024/01/14 06:42:57;;;;;;;9.87;9.07;;;;;;;20.98;20.84;94782.09;6164531;28;110331;-51
2024/01/14 06:46:02;;;;;;;10.67;9.23;;;;;;;21.09;20.97;94772.78;6163078;28;110706;-51
2024/01/14 06:49:05;;;;;;;9.77;8.87;;;;;;;21.19;20.85;94772.53;6146555;28;109132;-52
2024/01/14 06:52:08;;;;;;;9.67;8.77;;;;;;;21.25;20.83;94768.66;6161285;28;109098;-51
2024/01/14 06:55:13;;;;;;;10.30;9.30;;;;;;;21.30;20.91;94771.16;6160894;28;109067;-51
2024/01/14 06:58:16;;;;;;;10.20;9.20;;;;;;;21.31;20.96;94775.41;6158922;28;110406;-51
2024/01/14 07:01:21;;;;;;;10.07;9.17;;;;;;;21.36;20.54;94775.28;6149727;28;110078;-51
2024/01/14 07:04:24;;;;;;;9.93;9.07;;;;;;;21.56;20.25;94765.16;6161920;28;109180;-51
2024/01/14 07:07:28;;;;;;;9.47;8.60;;;;;;;21.72;20.58;94763.66;6159815;28;110196;-51
2024/01/14 07:10:30;;;;;;;9.70;8.80;;;;;;;21.84;20.27;94771.81;6154615;28;109774;-51
2024/01/14 07:13:34;;;;;;;9.33;8.53;;;;;;;22.00;20.14;94769.50;6152802;28;109725;-50
2024/01/14 07:16:38;;;;;;;9.50;8.60;;;;;;;22.02;20.26;94757.47;6156514;28;109128;-51
2024/01/14 07:19:41;;;;;;;10.43;9.47;;;;;;;22.00;20.18;94764.97;6161754;28;110334;-51
2024/01/14 07:22:45;;;;;;;9.83;8.87;;;;;;;21.95;20.52;94767.00;6148998;28;109237;-51
2024/01/14 07:25:48;;;;;;;9.80;8.90;;;;;;;22.05;20.59;94766.72;6158638;28;109245;-51
2024/01/14 07:28:52;;;;;;;9.60;8.73;;;;;;;22.14;20.36;94764.81;6168540;28;110081;-52
2024/01/14 07:31:58;;;;;;;10.13;9.30;;;;;;;22.11;20.52;94773.44;6160687;28;109198;-52
2024/01/14 07:35:02;;;;;;;12.67;11.53;;;;;;;21.91;20.60;94777.50;6152987;28;110112;-53
2024/01/14 07:38:05;;;;;;;14.83;13.43;;;;;;;21.29;22.43;94777.56;6167168;28;108861;-53
2024/01/14 07:41:12;;;;;;;16.23;14.60;;;;;;;21.00;22.51;94779.91;6164522;28;110214;-53
2024/01/14 07:44:15;;;;;;;17.80;14.80;;;;;;;20.91;22.79;94777.22;6159805;28;109249;-54
2024/01/14 07:47:21;;;;;;;19.13;14.70;;;;;;;20.90;22.89;94779.09;6154330;28;109636;-53
2024/01/14 07:50:23;;;;;;;14.90;13.40;;;;;;;20.86;23.10;94778.13;6160666;28;111219;-54
2024/01/14 07:53:27;;;;;;;16.90;15.07;;;;;;;20.76;22.98;94758.97;6161159;28;110237;-53
2024/01/14 07:56:29;;;;;;;18.33;16.10;;;;;;;20.71;22.95;94767.88;6150411;28;109241;-54
2024/01/14 07:59:33;;;;;;;25.13;21.30;;;;;;;20.36;22.65;94766.03;6160506;28;109120;-54
2024/01/14 08:02:39;;;;;;;25.03;22.40;;;;;;;20.02;22.14;94776.03;6159991;28;110248;-54
2024/01/14 08:05:42;;;;;;;28.20;25.47;;;;;;;19.83;21.36;94761.34;6160663;28;109164;-54
2024/01/14 08:08:45;;;;;;;27.27;24.03;;;;;;;19.66;21.41;94757.44;6150417;28;109353;-54
2024/01/14 08:11:48;;;;;;;26.30;23.33;;;;;;;19.89;21.41;94758.25;6160757;28;109310;-56
2024/01/14 08:14:51;;;;;;;42.10;22.90;;;;;;;19.43;21.22;94745.91;6159994;28;109000;-56
2024/01/14 08:17:56;;;;;;;42.97;22.37;;;;;;;19.43;22.15;94747.78;6161508;28;109168;-56
2024/01/14 08:20:59;;;;;;;48.83;23.70;;;;;;;19.73;20.59;94746.41;6142506;28;109125;-56
2024/01/14 08:24:04;;;;;;;30.73;21.27;;;;;;;19.78;20.98;94745.50;6160648;28;109026;-56
2024/01/14 08:27:07;;;;;;;26.50;20.97;;;;;;;20.06;21.28;94738.25;6160508;28;110055;-55
2024/01/14 08:30:13;;;;;;;22.90;20.50;;;;;;;20.21;21.54;94733.38;6154765;28;109185;-55
2024/01/14 08:33:21;;;;;;;21.50;19.20;;;;;;;20.31;21.15;94745.66;6132860;28;109134;-56
2024/01/14 08:36:25;;;;;;;22.07;19.20;;;;;;;20.36;21.41;94750.88;6151928;28;109995;-56
2024/01/14 08:39:28;;;;;;;30.83;20.20;;;;;;;20.41;21.74;94753.41;6159640;28;109184;-54
2024/01/14 08:42:32;;;;;;;23.27;18.97;;;;;;;20.43;21.67;94758.44;6145637;28;110014;-58
2024/01/14 08:45:35;;;;;;;22.80;20.00;;;;;;;20.56;21.66;94757.59;6159761;28;109060;-55
2024/01/14 08:48:40;;;;;;;20.53;17.93;;;;;;;20.58;21.69;94745.56;6160405;28;110041;-55
2024/01/14 08:51:43;;;;;;;31.40;17.50;;;;;;;20.74;21.85;94751.28;6159534;28;109114;-53
2024/01/14 08:54:46;;;;;;;18.47;16.77;;;;;;;21.04;23.38;94743.63;6150073;28;109617;-55
2024/01/14 08:57:49;;;;;;;18.33;16.43;;;;;;;20.87;24.85;94744.34;6158645;28;109047;-53
2024/01/14 09:00:54;;;;;;;19.80;17.50;;;;;;;20.80;24.76;94750.06;6159238;28;109383;-54
2024/01/14 09:03:59;;;;;;;20.37;18.27;;;;;;;20.67;25.35;94752.78;6154230;28;109384;-54
2024/01/14 09:07:02;;;;;;;19.77;17.77;;;;;;;20.56;26.27;94744.31;6152400;28;109187;-54
2024/01/14 09:10:07;;;;;;;21.50;19.40;;;;;;;20.65;26.55;94734.50;6158080;28;109252;-53
2024/01/14 09:13:10;;;;;;;23.80;17.73;;;;;;;20.70;27.11;94739.69;6158530;28;109075;-53
2024/01/14 09:16:13;;;;;;;18.70;16.70;;;;;;;20.75;26.80;94739.56;6145558;28;110104;-53
2024/01/14 09:19:18;;;;;;;18.47;16.77;;;;;;;20.74;26.53;94739.88;6162145;28;109946;-53
2024/01/14 09:22:21;;;;;;;16.83;15.23;;;;;;;20.67;26.90;94739.50;6159033;28;110133;-53
2024/01/14 09:25:24;;;;;;;17.70;15.80;;;;;;;20.65;27.67;94729.19;6159088;28;109595;-53
2024/01/14 09:28:27;;;;;;;16.90;15.20;;;;;;;20.69;27.65;94732.81;6147783;28;109313;-51
2024/01/14 09:31:30;;;;;;;16.77;14.70;;;;;;;21.34;27.33;94732.22;6158041;28;109052;-50
2024/01/14 09:34:35;;;;;;;25.50;15.03;;;;;;;21.70;26.67;94717.91;6157862;28;110112;-51
2024/01/14 09:37:38;;;;;;;16.30;14.70;;;;;;;21.82;25.82;94715.41;6161069;28;109111;-51
2024/01/14 09:40:41;;;;;;;16.60;15.03;;;;;;;21.96;25.60;94707.28;6153609;28;110095;-53
2024/01/14 09:43:50;;;;;;;15.63;13.90;;;;;;;22.04;24.92;94701.97;6163324;28;110274;-53
2024/01/14 09:46:55;;;;;;;15.43;14.03;;;;;;;22.12;24.86;94697.75;6161087;28;109005;-52
2024/01/14 09:50:01;;;;;;;15.10;13.50;;;;;;;22.14;24.25;94700.09;6151886;28;109334;-52
2024/01/14 09:53:09;;;;;;;14.13;12.63;;;;;;;22.09;23.79;94682.38;6161901;28;110140;-53
2024/01/14 09:56:14;;;;;;;14.47;12.97;;;;;;;22.21;23.99;94698.53;6157826;28;109021;-52
2024/01/14 09:59:19;;;;;;;14.67;13.37;;;;;;;22.26;23.59;94692.25;6162487;28;109819;-53
2024/01/14 10:02:22;;;;;;;13.60;12.20;;;;;;;22.34;23.15;94678.13;6151972;28;110060;-52
2024/01/14 10:05:27;;;;;;;14.37;12.97;;;;;;;22.36;22.95;94681.28;6161609;28;109985;-53
2024/01/14 10:08:30;;;;;;;14.50;13.10;;;;;;;22.40;22.99;94676.88;6162594;28;109096;-54
2024/01/14 10:11:33;;;;;;;13.53;12.13;;;;;;;22.43;22.66;94689.56;6162741;28;110413;-54
2024/01/14 10:14:36;;;;;;;13.90;12.60;;;;;;;22.34;22.97;94678.91;6150458;28;109125;-54
2024/01/14 10:17:39;;;;;;;12.57;11.47;;;;;;;22.34;22.62;94667.44;6158042;28;109184;-53
2024/01/14 10:20:44;;;;;;;12.37;11.17;;;;;;;22.35;22.41;94661.06;6163045;28;110154;-54
2024/01/14 10:23:47;;;;;;;13.33;11.93;;;;;;;22.39;22.79;94662.75;6156959;28;109581;-53
2024/01/14 10:26:52;;;;;;;12.80;11.50;;;;;;;22.41;22.21;94646.44;6153206;28;109113;-54
2024/01/14 10:29:55;;;;;;;14.27;11.80;;;;;;;22.55;22.37;94652.38;6159390;28;109066;-54
2024/01/14 10:32:59;;;;;;;13.00;11.70;;;;;;;22.57;22.22;94649.41;6157933;28;110101;-53
2024/01/14 10:36:23;;;;;;;11.70;10.60;;;;;;;22.52;22.25;94647.69;6144078;28;109668;-54
2024/01/14 10:39:30;;;;;;;11.93;10.73;;;;;;;22.52;22.19;94645.00;6159495;28;109079;-54
2024/01/14 10:42:34;;;;;;;12.30;11.00;;;;;;;22.57;22.50;94628.09;6159782;28;110147;-54
2024/01/14 10:45:37;;;;;;;10.97;9.97;;;;;;;22.55;22.40;94615.03;6162875;28;110507;-54
2024/01/14 10:48:42;;;;;;;12.03;10.83;;;;;;;22.57;22.83;94614.75;6151123;28;109102;-52
2024/01/14 10:51:55;;;;;;;12.30;11.10;;;;;;;22.49;22.95;94618.97;6157323;28;109244;-51
2024/01/14 10:55:02;;;;;;;11.60;10.47;;;;;;;22.48;22.65;94611.28;6159643;28;109250;-51
2024/01/14 10:58:06;;;;;;;12.53;11.33;;;;;;;22.49;22.34;94604.84;6150541;28;110148;-51
2024/01/14 11:01:13;;;;;;;11.70;10.60;;;;;;;22.52;22.42;94598.91;6157347;28;109210;-51
2024/01/14 11:04:17;;;;;;;11.03;10.03;;;;;;;22.49;22.35;94594.97;6159262;28;110014;-51
2024/01/14 11:07:23;;;;;;;12.23;11.13;;;;;;;22.54;22.60;94594.03;6156868;28;109170;-51
2024/01/14 11:10:26;;;;;;;10.30;9.40;;;;;;;22.50;22.41;94585.88;6146455;28;109852;-51
2024/01/14 11:13:38;;;;;;;10.80;9.80;;;;;;;22.49;22.21;94576.31;6149031;28;111134;-51
2024/01/14 11:16:47;;;;;;;10.77;9.77;;;;;;;22.39;22.58;94582.78;6108017;28;1233735;-50
2024/01/14 11:19:51;;;;;;;10.00;9.10;;;;;;;22.42;22.46;94581.34;6159852;28;110251;-50
2024/01/14 11:22:56;;;;;;;11.30;10.10;;;;;;;22.40;22.11;94575.56;6147696;28;109506;-50
2024/01/14 11:26:02;;;;;;;10.40;9.30;;;;;;;22.41;22.21;94579.78;6158252;28;110301;-51
2024/01/14 11:29:07;;;;;;;10.83;9.73;;;;;;;22.39;22.65;94564.13;6160546;28;110236;-51
2024/01/14 11:32:11;;;;;;;9.67;8.77;;;;;;;22.44;22.51;94570.38;6150918;28;110752;-50
2024/01/14 11:35:32;;;;;;;9.57;8.70;;;;;;;22.36;22.37;94546.09;6156736;28;109766;-50
2024/01/14 11:38:39;;;;;;;9.97;9.00;;;;;;;22.38;22.64;94533.22;6158687;28;110104;-50
2024/01/14 11:41:44;;;;;;;9.80;8.80;;;;;;;22.38;22.30;94522.56;6154445;28;109076;-51
2024/01/14 11:44:49;;;;;;;9.17;8.27;;;;;;;22.40;21.90;94530.25;6143094;28;109291;-51
2024/01/14 11:47:53;;;;;;;10.43;9.43;;;;;;;22.42;22.14;94533.38;6158694;28;109133;-51
2024/01/14 11:50:58;;;;;;;9.80;8.80;;;;;;;22.44;22.16;94525.81;6159365;28;110013;-52
2024/01/14 11:54:09;;;;;;;9.03;8.13;;;;;;;22.45;21.96;94523.94;6157824;28;109075;-51
2024/01/14 11:57:23;;;;;;;9.40;8.50;;;;;;;22.47;22.13;94511.84;6151788;28;109638;-54
2024/01/14 12:00:27;;;;;;;8.87;7.97;;;;;;;22.47;22.44;94497.75;6160399;28;110149;-53
2024/01/14 12:03:30;;;;;;;8.83;7.93;;;;;;;22.46;22.11;94499.63;6157791;28;109958;-53
2024/01/14 12:06:43;;;;;;;9.57;8.67;;;;;;;22.49;22.04;94522.97;6148276;28;110097;-53
2024/01/14 12:09:53;;;;;;;8.87;8.00;;;;;;;22.46;21.95;94520.16;6159348;28;110079;-52
2024/01/14 12:12:56;;;;;;;8.77;7.73;;;;;;;22.45;21.95;94524.72;6143054;28;110755;-52
2024/01/14 12:16:01;;;;;;;9.40;8.50;;;;;;;22.44;22.39;94509.81;6152964;28;110158;-52
2024/01/14 12:19:12;;;;;;;8.40;7.70;;;;;;;22.42;22.20;94506.72;6147316;28;111294;-51
2024/01/14 12:22:16;;;;;;;8.27;7.47;;;;;;;22.39;22.21;94510.81;6158193;28;110112;-53
2024/01/14 12:25:21;;;;;;;8.27;7.47;;;;;;;22.38;22.29;94505.78;6156897;28;112348;-54
2024/01/14 12:28:29;;;;;;;7.70;7.00;;;;;;;22.37;21.86;94497.00;6154341;28;110235;-53
2024/01/14 12:31:34;;;;;;;9.60;8.70;;;;;;;22.35;22.27;94493.88;6148575;28;110820;-53
2024/01/14 12:34:55;;;;;;;8.27;7.47;;;;;;;22.36;21.89;94495.44;6155817;28;110046;-51
2024/01/14 12:37:58;;;;;;;8.13;7.33;;;;;;;22.31;22.15;94498.28;6157460;28;109840;-51
2024/01/14 12:41:02;;;;;;;8.87;8.00;;;;;;;22.34;21.86;94496.84;6147474;28;110267;-53
2024/01/14 12:44:07;;;;;;;8.97;8.17;;;;;;;22.33;21.79;94500.63;6152330;28;109925;-53
2024/01/14 12:47:10;;;;;;;8.50;7.70;;;;;;;22.30;22.15;94504.72;6145645;28;110297;-54
2024/01/14 12:50:14;;;;;;;8.67;7.87;;;;;;;22.32;21.90;94501.72;6156495;28;108931;-53
2024/01/14 12:53:18;;;;;;;8.47;7.63;;;;;;;22.29;21.54;94505.81;6146430;28;109489;-54
2024/01/14 12:56:24;;;;;;;8.93;8.17;;;;;;;22.30;21.64;94499.38;6158548;28;109465;-54
2024/01/14 12:59:27;;;;;;;9.37;7.90;;;;;;;22.07;22.16;94503.38;6157553;28;110382;-54
2024/01/14 13:02:31;;;;;;;10.07;9.07;;;;;;;22.11;22.59;94498.97;6152216;28;109250;-53
2024/01/14 13:05:34;;;;;;;11.07;9.80;;;;;;;21.97;22.88;94499.16;6153310;28;109737;-54
2024/01/14 13:08:37;;;;;;;10.80;9.70;;;;;;;22.07;22.06;94490.84;6161545;28;109513;-51
2024/01/14 13:11:41;;;;;;;9.90;8.90;;;;;;;22.15;22.07;94501.78;6170971;28;111080;-51
2024/01/14 13:14:45;;;;;;;11.63;9.77;;;;;;;22.16;22.56;94495.34;6149161;28;109226;-51
2024/01/14 13:17:49;;;;;;;11.47;10.27;;;;;;;22.17;22.21;94494.25;6163634;28;110194;-51
2024/01/14 13:20:52;;;;;;;11.80;10.80;;;;;;;22.17;22.50;94502.25;6162767;28;110018;-52
2024/01/14 13:23:55;;;;;;;13.77;12.47;;;;;;;21.90;23.49;94503.44;6161772;28;108890;-55
2024/01/14 13:27:09;;;;;;;15.50;14.10;;;;;;;21.13;23.70;94507.69;6150928;28;110189;-53
2024/01/14 13:30:13;;;;;;;17.23;15.63;;;;;;;21.01;23.43;94502.97;6175852;28;108946;-53
2024/01/14 13:33:16;;;;;;;19.27;17.47;;;;;;;20.85;23.99;94496.53;6166309;28;110420;-53
2024/01/14 13:36:20;;;;;;;20.47;15.57;;;;;;;21.34;23.66;94497.19;6156727;28;109082;-51
2024/01/14 13:39:24;;;;;;;16.67;14.20;;;;;;;21.80;23.25;94499.19;6154152;28;109049;-51
2024/01/14 13:42:28;;;;;;;17.57;15.00;;;;;;;22.03;23.46;94497.91;6162069;28;109175;-51
2024/01/14 13:45:32;;;;;;;16.13;14.53;;;;;;;22.14;23.06;94492.22;6163482;28;109166;-51
2024/01/14 13:48:35;;;;;;;15.70;14.10;;;;;;;22.20;23.39;94486.41;6153710;28;109754;-51
2024/01/14 13:51:39;;;;;;;15.37;13.97;;;;;;;22.27;23.32;94491.25;6163037;28;110330;-51
2024/01/14 13:54:42;;;;;;;14.63;13.23;;;;;;;22.29;23.21;94489.03;6162932;28;108998;-51
2024/01/14 13:57:47;;;;;;;15.37;13.90;;;;;;;22.29;23.57;94489.81;6163178;28;108717;-51
2024/01/14 14:00:51;;;;;;;14.57;13.10;;;;;;;22.31;23.79;94490.28;6151640;28;109479;-51
2024/01/14 14:03:54;;;;;;;13.83;12.50;;;;;;;22.34;23.77;94484.31;6160676;28;110308;-51